Date,TemperatureHighF,TemperatureAvgF,TemperatureLowF,DewpointHighF,DewpointAvgF,DewpointLowF,HumidityHigh,HumidityAvg,HumidityLow,PressureMaxIn,PressureMinIn,WindSpeedMaxMPH,WindSpeedAvgMPH,GustSpeedMaxMPH,PrecipitationSumIn
2014-1-1,69.9,60.0,53.2,34.3,23.2,8.1,37,25,14,30.12,30.04,6,1,7,0.00
2014-1-2,74.5,63.9,57.9,36.8,31.7,24.8,36,30,23,30.07,29.96,6,0,6,0.00
2014-1-3,71.7,61.3,56.7,36.7,31.4,26.7,41,33,24,29.97,29.87,5,0,6,0.00
2014-1-4,70.0,59.4,55.2,39.2,30.3,12.6,44,34,16,29.99,29.88,7,2,10,0.00
2014-1-5,68.6,59.3,52.9,33.7,24.3,10.9,37,26,17,30.12,29.99,7,1,8,0.00
2014-1-6,66.6,58.8,54.6,36.4,28.4,20.9,38,31,25,30.18,30.09,3,0,3,0.00
2014-1-7,63.0,55.5,49.0,41.0,32.6,20.4,72,43,23,30.11,30.04,5,1,7,0.00
2014-1-8,54.4,48.0,44.3,45.9,43.0,39.7,94,83,71,30.16,30.07,9,2,10,0.00
2014-1-9,55.0,49.3,43.8,45.8,39.1,31.7,92,69,43,30.19,30.12,9,2,11,0.00
2014-1-10,64.0,55.2,47.6,45.9,39.6,25.6,82,57,31,30.22,30.11,8,2,11,0.00
2014-1-11,58.7,52.5,45.1,48.8,39.4,25.1,86,62,32,30.19,30.08,12,1,15,0.00
2014-1-12,53.0,48.0,42.3,41.4,34.1,25.2,89,61,37,30.27,30.17,19,5,23,0.00
2014-1-13,65.6,56.3,49.3,34.2,29.7,20.9,49,37,22,30.36,30.25,13,4,16,0.00
2014-1-14,69.3,62.7,55.6,28.8,20.7,13.2,33,20,13,30.34,30.22,11,4,15,0.00
2014-1-15,77.4,66.8,60.4,32.5,21.5,13.4,26,18,11,30.22,30.12,7,1,7,0.00
2014-1-16,80.2,69.0,63.7,28.7,16.0,7.9,20,13,10,30.12,30.03,3,0,4,0.00
2014-1-17,81.5,69.1,63.3,21.5,14.5,8.0,16,12,8,30.09,30.02,4,0,5,0.00
2014-1-18,79.3,67.8,62.2,23.4,15.1,5.5,21,13,10,30.06,29.98,2,0,4,0.00
2014-1-19,77.9,66.0,59.5,23.3,12.5,4.3,17,12,9,30.03,29.97,2,0,5,0.00
2014-1-20,75.1,63.9,58.1,29.9,19.3,8.4,26,18,12,30.15,30.01,5,0,6,0.00
2014-1-21,76.4,63.9,59.4,32.3,15.8,6.9,29,16,10,30.15,30.06,10,2,13,0.00
2014-1-22,71.3,63.5,59.2,18.7,13.6,8.2,20,14,10,30.07,29.84,9,3,11,0.00
2014-1-23,69.5,57.4,46.9,45.9,28.5,15.1,84,37,17,29.93,29.78,7,1,12,0.00
2014-1-24,62.7,55.3,47.9,49.0,39.6,22.6,85,57,27,30.22,29.93,6,0,9,0.00
2014-1-25,73.9,62.9,54.7,38.4,33.1,23.1,47,33,23,30.21,30.06,8,2,8,0.00
2014-1-26,67.4,60.2,55.0,35.7,29.8,20.2,44,32,20,30.05,29.96,3,0,5,0.00
2014-1-27,65.1,57.8,52.8,45.5,32.8,25.3,59,39,28,30.11,29.99,6,1,8,0.00
2014-1-28,65.2,57.9,52.9,54.3,46.9,36.2,94,68,47,30.17,30.09,8,1,11,0.00
2014-1-29,63.6,56.8,53.4,56.2,53.8,51.1,95,90,73,30.14,29.89,7,0,7,0.00
2014-1-30,57.7,49.1,42.9,51.1,42.1,36.0,96,78,49,29.89,29.79,9,2,11,0.01
2014-1-31,55.4,46.2,41.1,39.6,31.9,19.5,88,60,29,30.01,29.85,9,2,10,0.00
2014-2-1,56.2,45.5,38.7,37.3,29.7,22.1,81,54,33,30.08,30.00,10,1,10,0.00
2014-2-2,43.0,39.9,35.0,41.9,36.8,27.7,96,89,57,30.01,29.79,7,1,11,0.17
2014-2-3,48.4,41.3,36.4,39.9,35.6,32.3,93,80,61,30.02,29.90,7,2,10,0.00
2014-2-4,52.7,42.3,36.3,40.2,35.9,32.2,88,79,59,30.09,30.01,4,0,5,0.00
2014-2-5,53.3,42.8,35.8,40.2,37.0,32.2,92,81,56,30.14,30.02,5,0,5,0.01
2014-2-6,47.7,43.8,40.0,46.9,42.9,37.4,98,96,89,30.02,29.82,7,0,11,0.01
2014-2-7,46.3,45.4,43.6,45.8,44.9,43.1,99,98,98,30.07,29.97,3,0,10,0.33
2014-2-8,50.9,49.4,46.1,50.6,49.0,45.7,99,99,98,30.16,30.06,3,0,6,2.04
2014-2-9,51.6,50.6,49.8,51.3,50.3,49.5,99,99,99,30.15,30.05,2,0,5,1.85
2014-2-10,53.6,51.1,48.8,53.3,48.9,43.4,99,93,74,30.21,30.08,7,1,10,0.05
2014-2-11,62.6,53.5,47.0,52.1,43.8,35.0,86,70,56,30.17,30.10,5,1,7,0.00
2014-2-12,63.6,56.0,48.9,48.1,38.2,17.3,79,53,25,30.19,30.11,5,1,6,0.00
2014-2-13,71.0,59.5,52.7,57.0,50.9,44.7,83,74,55,30.13,30.03,6,1,9,0.00
2014-2-14,66.9,56.1,49.9,58.4,51.4,40.4,97,85,58,30.08,29.98,7,0,7,0.00
2014-2-15,57.7,52.6,48.7,51.7,47.2,34.9,97,83,50,30.01,29.92,2,0,2,0.01
2014-2-16,59.7,51.5,44.6,48.5,41.6,35.6,97,71,48,30.12,29.98,7,3,10,0.05
2014-2-17,59.8,51.1,46.6,42.3,37.2,23.6,76,60,36,30.09,30.00,8,2,9,0.00
2014-2-18,62.3,52.8,46.6,46.1,37.0,20.1,73,56,24,30.12,30.02,9,1,11,0.00
2014-2-19,57.1,51.0,47.7,46.5,42.2,35.8,94,73,50,30.11,30.03,7,3,14,0.00
2014-2-20,62.6,55.4,47.8,38.9,32.8,26.0,69,43,32,30.13,30.04,10,2,11,0.00
2014-2-21,69.5,58.9,52.5,40.3,33.7,28.5,48,39,25,30.03,29.91,8,2,12,0.00
2014-2-22,67.1,58.0,52.6,42.2,37.6,34.1,57,47,30,29.93,29.86,5,1,9,0.00
2014-2-23,71.4,59.0,50.4,48.2,39.8,35.9,59,49,39,29.94,29.88,4,0,6,0.00
2014-2-24,73.0,60.2,52.7,49.5,41.6,37.6,64,51,34,29.92,29.85,2,0,6,0.00
2014-2-25,65.4,53.0,45.3,48.0,42.3,36.4,95,69,39,29.90,29.84,3,0,6,0.00
2014-2-26,50.9,48.6,45.7,50.3,47.5,43.7,98,96,90,29.90,29.66,8,1,15,0.79
2014-2-27,54.9,50.6,47.1,52.5,47.2,37.3,99,89,52,29.87,29.48,10,1,14,0.20
2014-2-28,54.1,47.6,44.9,50.0,46.8,42.2,98,97,64,29.48,29.32,12,1,14,1.92
2014-3-1,54.3,48.8,45.2,52.0,47.4,44.1,99,95,86,29.77,29.40,10,1,15,0.91
2014-3-2,50.6,48.4,46.6,50.3,47.8,45.6,99,98,94,30.14,29.77,3,0,11,0.89
2014-3-3,52.5,48.0,44.7,51.1,47.1,44.4,99,97,84,30.12,30.03,1,0,3,0.12
2014-3-4,55.4,51.8,45.8,55.1,51.4,45.3,99,99,98,30.06,29.99,5,0,5,0.06
2014-3-5,65.3,54.8,50.8,58.2,52.0,47.7,99,91,67,30.06,29.99,2,0,3,0.23
2014-3-6,59.0,52.7,47.8,53.8,48.2,41.8,99,85,65,30.11,30.01,10,2,16,0.21
2014-3-7,61.6,52.4,43.8,49.9,42.5,39.3,90,70,47,30.10,30.05,9,2,10,0.00
2014-3-8,71.4,59.7,50.8,49.8,43.0,32.0,71,55,25,30.15,30.04,5,0,6,0.00
2014-3-9,74.4,63.0,55.7,45.8,39.2,32.5,59,42,25,30.13,30.04,3,0,6,0.00
2014-3-10,60.4,55.0,50.3,49.2,40.7,32.4,91,60,41,30.12,30.02,17,4,17,0.00
2014-3-11,60.9,55.6,50.0,35.1,28.8,18.5,51,36,22,30.08,29.93,17,5,20,0.00
2014-3-12,70.0,58.6,50.9,38.6,29.6,18.3,60,34,25,30.00,29.90,9,2,11,0.00
2014-3-13,70.2,61.6,55.5,30.9,23.9,13.2,31,24,16,29.99,29.91,8,3,11,0.00
2014-3-14,67.6,59.1,50.3,49.2,33.1,9.2,59,39,14,30.16,29.98,6,1,6,0.00
2014-3-15,74.4,65.8,59.5,47.8,38.3,31.7,45,37,24,30.24,30.15,7,2,12,0.00
2014-3-16,80.6,67.7,57.5,47.7,38.2,13.0,49,34,15,30.23,30.10,9,2,13,0.00
2014-3-17,58.8,52.7,46.0,46.0,38.6,20.8,86,60,24,30.11,29.90,11,2,15,0.00
2014-3-18,63.2,55.6,49.7,36.7,26.9,21.0,56,34,23,29.92,29.84,11,3,18,0.00
2014-3-19,74.0,60.3,51.6,40.4,32.0,23.7,45,35,26,30.01,29.90,6,0,7,0.00
2014-3-20,73.7,61.2,54.3,44.9,32.6,19.8,57,34,25,29.99,29.86,4,0,5,0.00
2014-3-21,63.6,52.1,44.6,49.1,42.0,33.3,90,70,41,29.94,29.84,3,0,5,0.00
2014-3-22,64.2,49.0,38.5,48.5,43.2,37.0,97,82,55,30.07,29.92,3,0,5,0.00
2014-3-23,68.1,56.2,46.0,51.3,43.5,33.4,92,65,34,30.09,30.03,6,1,7,0.00
2014-3-24,76.4,64.0,56.1,47.0,38.0,27.6,53,38,31,30.07,29.95,5,1,5,0.00
2014-3-25,63.2,53.1,45.5,49.6,39.4,10.9,96,64,21,29.96,29.81,3,0,9,0.12
2014-3-26,50.5,46.3,44.3,48.1,44.7,43.0,97,94,85,29.94,29.77,2,0,4,0.76
2014-3-27,52.7,47.1,42.2,49.3,45.3,41.1,98,94,85,30.10,29.94,2,0,3,0.01
2014-3-28,64.1,51.5,45.1,52.8,46.7,43.4,98,85,59,30.16,30.08,3,0,5,0.00
2014-3-29,51.2,48.3,44.2,50.7,47.6,42.9,98,97,95,30.11,29.95,4,0,6,0.96
2014-3-30,56.0,46.4,41.1,49.4,42.8,37.4,97,87,72,30.09,29.98,5,1,6,0.00
2014-3-31,47.9,42.2,37.3,44.2,40.5,36.0,98,94,82,30.03,29.78,5,0,7,0.76
2014-4-1,46.8,41.2,37.8,46.0,40.3,37.0,98,97,92,29.92,29.80,3,0,4,0.69
2014-4-2,51.9,44.1,37.4,45.4,39.0,36.4,98,83,61,30.06,29.83,4,1,9,0.02
2014-4-3,60.1,48.4,42.3,46.5,40.4,35.5,93,75,47,30.06,29.99,3,0,5,0.00
2014-4-4,52.8,45.5,42.6,49.1,42.8,40.7,97,90,67,30.00,29.90,4,0,7,0.15
2014-4-5,59.6,50.4,42.5,45.4,42.0,39.6,94,75,49,30.15,29.98,8,2,11,0.00
2014-4-6,69.1,59.2,47.2,48.8,44.2,41.1,85,59,38,30.16,30.07,7,2,12,0.00
2014-4-7,80.5,67.5,58.1,55.9,48.6,43.0,63,52,38,30.08,30.02,4,0,5,0.00
2014-4-8,82.2,68.1,61.2,54.9,44.1,28.1,64,43,27,30.04,29.98,5,0,5,0.00
2014-4-9,76.8,65.0,57.0,56.0,44.6,29.1,63,48,28,29.99,29.92,4,0,5,0.00
2014-4-10,80.0,66.5,57.5,52.4,35.3,12.3,52,32,12,29.94,29.84,4,0,5,0.00
2014-4-11,70.1,58.2,46.4,55.8,42.1,21.8,96,60,22,29.87,29.78,3,0,5,0.00
2014-4-12,64.2,49.6,43.4,51.0,45.7,42.6,98,88,59,29.90,29.80,2,0,5,0.00
2014-4-13,68.0,53.0,43.5,52.9,47.1,42.4,97,82,57,30.00,29.89,4,0,6,0.00
2014-4-14,77.1,62.6,52.0,56.1,45.8,24.6,78,56,23,30.04,29.96,5,0,6,0.00
2014-4-15,74.2,63.7,56.3,56.5,43.8,21.1,75,50,21,29.99,29.83,6,0,6,0.00
2014-4-16,75.8,64.8,53.9,55.8,44.3,28.2,66,48,32,29.83,29.76,5,1,7,0.00
2014-4-17,68.6,60.8,52.5,55.6,47.3,37.8,85,62,40,29.80,29.71,3,0,5,0.00
2014-4-18,66.9,55.6,45.7,54.3,48.0,41.1,93,76,61,29.89,29.78,5,0,7,0.00
2014-4-19,69.2,55.5,44.0,50.9,44.1,18.0,86,67,26,30.07,29.87,6,0,8,0.00
2014-4-20,76.0,63.1,49.5,55.6,42.0,24.3,83,50,17,30.07,30.01,6,1,9,0.00
2014-4-21,72.4,62.7,50.2,49.8,33.1,17.8,72,35,19,30.02,29.87,7,1,10,0.00
2014-4-22,58.0,48.7,41.5,45.7,35.8,23.0,93,64,31,30.05,29.87,9,2,15,0.01
2014-4-23,61.5,51.2,41.6,43.7,35.2,26.3,79,55,37,30.07,30.01,9,2,16,0.00
2014-4-24,67.7,55.3,47.6,52.8,46.9,40.0,89,74,53,30.04,29.92,8,1,8,0.00
2014-4-25,51.8,46.5,41.3,48.2,44.6,39.9,97,93,80,29.92,29.74,5,0,6,0.43
2014-4-26,57.7,46.5,40.3,43.4,39.0,35.9,96,77,50,30.05,29.78,5,1,7,0.00
2014-4-27,60.0,48.8,42.6,53.6,44.4,37.6,97,85,71,30.08,29.99,6,1,7,0.03
2014-4-28,64.2,54.7,44.2,45.6,39.4,33.2,78,58,34,30.15,30.07,9,2,15,0.00
2014-4-29,77.0,68.1,57.3,42.1,37.9,32.2,56,34,25,30.12,30.02,11,4,15,0.00
2014-4-30,88.3,73.7,65.2,48.9,40.9,36.1,43,31,19,30.02,29.97,3,0,7,0.00
2014-5-1,86.9,75.5,68.1,53.2,43.1,24.6,46,32,18,30.03,29.95,5,1,6,0.00
2014-5-2,84.9,71.4,57.6,49.1,36.5,22.2,66,30,16,30.01,29.93,8,1,10,0.00
2014-5-3,68.4,59.2,49.0,54.7,46.9,39.3,74,64,48,29.95,29.90,7,2,9,0.00
2014-5-4,67.4,54.7,45.9,50.7,45.6,40.3,87,72,52,29.99,29.93,7,1,9,0.00
2014-5-5,62.7,51.5,44.4,46.3,42.6,37.8,89,73,50,29.99,29.89,8,0,8,0.00
2014-5-6,63.6,51.9,42.5,45.3,39.1,33.8,85,63,41,29.89,29.83,7,1,12,0.00
2014-5-7,63.2,49.9,42.4,49.3,43.3,39.9,94,79,57,29.97,29.83,5,0,6,0.00
2014-5-8,61.6,52.1,43.7,52.7,47.4,41.0,96,84,67,30.05,29.94,3,0,5,0.01
2014-5-9,64.7,55.1,46.1,51.5,45.8,35.6,96,73,44,30.08,30.03,7,1,9,0.00
2014-5-10,64.7,52.4,44.3,42.0,38.9,35.4,80,62,37,30.07,29.97,10,1,14,0.00
2014-5-11,68.0,59.1,50.7,41.4,32.3,24.6,70,38,25,30.02,29.96,20,4,21,0.00
2014-5-12,83.4,69.4,60.3,43.0,33.4,23.3,41,27,19,30.05,29.98,11,2,14,0.00
2014-5-13,90.1,75.1,65.8,41.3,32.4,25.3,31,22,11,30.08,29.99,5,1,7,0.00
2014-5-14,93.7,79.3,69.2,43.9,33.1,16.7,27,19,12,30.07,29.99,6,1,8,0.00
2014-5-15,93.8,79.2,69.9,42.3,27.5,13.8,26,15,10,30.02,29.96,10,2,12,0.00
2014-5-16,83.8,71.3,61.8,52.4,37.7,18.4,55,31,15,30.00,29.92,6,1,9,0.00
2014-5-17,75.3,62.1,53.6,53.9,44.6,32.0,71,53,37,29.93,29.88,4,0,8,0.00
2014-5-18,68.7,57.7,49.6,49.1,43.7,35.3,86,61,35,29.91,29.87,7,1,10,0.00
2014-5-19,64.7,53.3,46.1,49.0,43.8,39.0,85,71,52,29.91,29.86,5,0,7,0.00
2014-5-20,61.1,52.7,45.6,51.7,47.1,42.5,93,82,68,29.96,29.87,3,0,5,0.00
2014-5-21,68.3,55.3,47.3,54.7,49.6,45.9,96,82,60,29.93,29.88,4,0,6,0.00
2014-5-22,65.0,53.6,46.3,54.2,49.5,45.2,97,87,66,29.99,29.85,2,0,3,0.00
2014-5-23,74.6,62.8,52.3,58.4,52.4,45.8,90,70,50,29.98,29.91,7,0,8,0.00
2014-5-24,77.0,62.8,51.8,59.3,52.2,44.2,85,69,52,29.93,29.88,4,0,6,0.00
2014-5-25,82.7,70.5,58.8,59.9,47.7,33.5,66,45,26,29.91,29.86,5,1,9,0.00
2014-5-26,83.0,71.4,63.5,54.7,41.6,18.9,48,35,17,29.94,29.86,11,1,13,0.01
2014-5-27,79.1,67.1,58.0,52.8,30.0,-6.0,52,29,6,29.95,29.91,7,1,12,0.00
2014-5-28,72.8,64.1,55.3,37.6,26.6,6.6,41,25,12,29.94,29.88,16,3,16,0.00
2014-5-29,80.2,68.6,61.3,43.5,33.0,15.0,40,27,14,29.88,29.82,9,2,14,0.00
2014-5-30,74.7,61.8,49.8,51.0,39.1,14.8,85,46,17,29.87,29.80,3,0,5,0.00
2014-5-31,71.3,57.2,43.2,53.7,47.1,25.6,96,72,25,29.91,29.84,4,0,6,0.00
2014-6-1,80.4,66.4,57.4,54.8,42.9,27.9,60,43,25,29.88,29.76,3,0,3,0.00
2014-6-2,66.7,53.8,44.5,51.3,45.7,33.8,96,76,41,29.86,29.73,3,0,4,0.00
2014-6-3,70.9,56.2,45.2,54.6,49.7,44.1,97,80,55,29.89,29.83,5,0,5,0.00
2014-6-4,82.3,67.8,57.7,58.1,50.2,35.0,70,54,28,29.84,29.79,4,0,5,0.00
2014-6-5,79.7,70.7,64.7,57.5,45.8,32.9,62,42,25,29.79,29.75,3,0,5,0.00
2014-6-6,74.8,65.4,58.6,56.2,45.6,17.2,72,51,14,29.77,29.71,2,0,3,0.00
2014-6-7,78.2,65.5,52.8,58.0,50.5,41.1,78,60,33,29.78,29.73,4,0,7,0.00
2014-6-8,95.0,81.2,71.0,60.6,49.2,37.2,43,33,26,29.77,29.69,5,1,9,0.00
2014-6-9,89.0,75.7,63.1,61.2,50.0,37.1,66,42,23,29.69,29.64,3,0,4,0.00
2014-6-10,73.6,62.8,51.0,57.2,50.9,43.2,95,66,53,29.78,29.64,3,0,5,0.00
2014-6-11,60.4,52.8,49.9,54.9,50.8,48.8,98,93,79,29.87,29.77,2,0,3,0.03
2014-6-12,71.5,57.5,48.0,55.7,49.8,42.8,98,78,53,29.94,29.85,7,0,8,0.00
2014-6-13,77.0,61.6,49.9,55.4,46.2,31.8,85,59,29,29.92,29.87,5,0,6,0.00
2014-6-14,85.2,70.6,60.4,50.0,40.9,23.8,60,35,20,29.88,29.76,7,2,9,0.00
2014-6-15,70.5,58.0,48.1,53.4,45.8,28.2,93,66,26,29.80,29.69,3,0,5,0.00
2014-6-16,71.9,55.5,45.8,51.5,44.0,32.5,95,69,27,29.87,29.77,3,0,6,0.00
2014-6-17,73.6,58.6,43.1,50.4,42.1,36.8,88,58,30,29.89,29.82,7,1,9,0.00
2014-6-18,83.9,70.9,58.6,50.6,38.2,21.8,44,31,17,29.89,29.84,9,1,9,0.00
2014-6-19,84.2,72.2,60.6,51.7,38.7,20.8,58,31,17,29.91,29.85,5,0,5,0.00
2014-6-20,87.8,72.0,62.6,54.4,39.8,25.5,48,32,16,29.90,29.86,6,1,11,0.00
2014-6-21,75.7,67.0,58.8,56.5,37.2,-2.3,69,40,6,29.85,29.81,3,0,5,0.00
2014-6-22,75.5,62.8,52.1,55.3,48.7,35.6,87,61,41,29.88,29.81,4,0,6,0.00
2014-6-23,78.0,62.8,47.0,56.7,50.6,43.5,95,67,44,29.92,29.83,3,0,5,0.00
2014-6-24,82.7,69.8,59.1,56.0,46.8,35.1,71,45,31,29.94,29.89,9,1,10,0.00
2014-6-25,78.8,63.5,53.2,58.7,53.0,47.1,87,70,49,29.92,29.86,6,1,9,0.00
2014-6-26,75.8,62.5,54.2,57.1,53.1,48.9,93,74,44,29.92,29.88,5,1,7,0.00
2014-6-27,80.0,65.0,54.2,59.6,54.6,49.3,92,71,46,29.92,29.87,6,1,8,0.00
2014-6-28,82.1,65.6,52.7,59.1,52.4,30.9,96,67,25,29.89,29.85,6,1,9,0.00
2014-6-29,88.7,74.6,62.0,56.8,46.0,28.6,51,37,22,29.88,29.78,4,0,6,0.00
2014-6-30,83.1,72.8,61.5,58.7,50.2,33.8,70,47,23,29.79,29.74,3,0,5,0.00
2014-7-1,78.4,65.4,55.5,57.2,52.1,43.2,79,63,47,29.81,29.72,3,0,4,0.00
2014-7-2,73.0,60.4,50.2,57.7,52.3,40.8,92,75,58,29.87,29.75,3,0,4,0.00
2014-7-3,78.0,66.6,57.4,58.4,53.2,46.9,83,63,44,29.90,29.83,3,0,5,0.00
2014-7-4,85.4,72.6,65.0,59.4,50.1,31.0,60,46,25,29.92,29.83,3,0,4,0.00
2014-7-5,88.5,75.3,66.1,55.5,42.5,19.1,54,32,15,29.99,29.91,5,0,6,0.00
2014-7-6,91.7,78.4,68.3,54.7,43.8,13.6,43,30,9,29.95,29.86,6,0,7,0.00
2014-7-7,89.3,77.3,71.2,58.3,41.1,6.8,58,31,7,29.86,29.77,3,0,3,0.00
2014-7-8,78.5,70.2,60.8,55.6,49.3,37.0,80,49,30,29.87,29.76,4,0,5,0.00
2014-7-9,73.8,60.7,51.8,56.9,53.4,49.8,95,78,54,29.90,29.82,2,0,5,0.00
2014-7-10,72.0,58.0,51.5,57.2,53.1,50.0,97,85,58,29.91,29.84,3,0,3,0.00
2014-7-11,71.4,57.7,51.9,60.8,54.2,51.0,98,89,62,30.00,29.89,3,0,4,0.05
2014-7-12,82.8,64.5,51.1,61.0,54.4,33.0,96,73,27,30.02,29.96,4,0,6,0.00
2014-7-13,90.0,77.0,64.3,61.4,48.2,25.7,64,38,16,29.97,29.83,6,1,11,0.00
2014-7-14,84.0,74.4,66.4,57.9,47.9,20.4,71,45,10,29.88,29.77,4,0,5,0.00
2014-7-15,78.6,68.3,63.2,63.3,58.3,48.9,88,71,48,29.96,29.86,5,0,5,0.00
2014-7-16,75.0,61.7,56.0,60.5,56.7,54.1,97,85,60,29.98,29.91,2,0,5,0.01
2014-7-17,74.2,61.1,54.6,58.6,55.3,50.4,95,83,56,29.97,29.92,3,0,4,0.00
2014-7-18,75.2,60.4,53.3,59.8,54.8,52.0,98,83,57,29.96,29.91,2,0,3,0.02
2014-7-19,77.5,64.3,56.3,60.0,52.8,28.6,85,67,32,29.91,29.86,2,0,3,0.00
2014-7-20,79.3,64.8,57.9,59.7,56.2,53.3,92,75,50,29.94,29.84,3,0,5,0.00
2014-7-21,74.4,61.4,56.3,60.0,55.9,53.0,94,83,59,30.01,29.91,4,0,5,0.00
2014-7-22,75.3,61.4,55.4,59.9,55.2,52.2,92,81,56,30.06,29.96,4,0,5,0.00
2014-7-23,81.8,66.2,56.1,61.3,55.9,51.0,88,71,48,30.07,29.97,8,1,8,0.00
2014-7-24,88.6,73.0,59.8,62.0,53.0,43.8,79,52,32,29.97,29.80,7,1,8,0.00
2014-7-25,93.2,78.7,71.0,59.5,53.3,42.0,51,42,25,29.82,29.76,3,0,5,0.00
2014-7-26,88.2,76.0,69.7,59.8,51.0,41.3,57,42,30,29.89,29.81,3,0,4,0.00
2014-7-27,89.2,74.7,65.6,57.9,45.9,24.6,60,37,18,29.93,29.86,4,0,5,0.00
2014-7-28,86.0,74.4,68.0,51.8,36.8,16.9,45,28,12,30.00,29.90,2,0,3,0.00
2014-7-29,91.1,78.0,68.1,57.5,42.5,24.9,41,29,17,29.98,29.91,2,0,3,0.00
2014-7-30,92.6,80.0,72.6,61.1,45.1,19.1,47,31,12,29.92,29.88,4,0,5,0.00
2014-7-31,92.0,81.2,72.3,61.9,45.4,18.3,51,31,9,29.89,29.82,6,1,7,0.00
2014-8-1,92.9,83.9,77.8,61.4,38.0,8.4,42,22,6,29.84,29.78,7,1,7,0.00
2014-8-2,91.4,78.4,67.3,61.7,50.9,20.0,67,41,11,29.86,29.79,3,0,4,0.00
2014-8-3,78.4,65.3,54.8,60.3,54.9,50.8,88,70,52,29.88,29.82,3,0,3,0.00
2014-8-4,73.5,58.8,52.1,57.5,53.3,50.7,97,83,56,29.94,29.85,5,0,5,0.02
2014-8-5,78.8,65.3,53.4,61.1,56.8,51.7,97,76,53,30.00,29.93,8,0,8,0.00
2014-8-6,80.3,70.7,64.7,62.9,58.4,53.6,79,66,54,29.98,29.90,7,1,7,0.00
2014-8-7,80.5,69.7,62.4,61.7,57.0,45.9,79,65,45,29.90,29.84,5,0,5,0.00
2014-8-8,79.0,68.2,60.2,59.7,53.4,42.3,76,60,42,29.86,29.82,4,0,4,0.00
2014-8-9,77.6,65.7,53.5,58.4,52.8,45.1,91,64,50,29.90,29.83,5,0,5,0.00
2014-8-10,77.1,60.5,49.7,58.0,52.5,44.4,96,76,50,29.95,29.86,5,0,5,0.00
2014-8-11,80.7,67.1,54.1,59.0,51.1,40.1,94,58,40,29.90,29.85,5,0,5,0.00
2014-8-12,79.0,62.1,52.1,56.4,53.5,50.9,97,76,43,29.93,29.86,4,0,4,0.00
2014-8-13,80.5,64.6,51.2,58.3,53.1,40.2,90,68,46,29.93,29.86,6,0,6,0.00
2014-8-14,80.7,67.1,59.6,61.6,55.9,42.9,88,68,48,29.90,29.85,5,0,5,0.00
2014-8-15,82.3,70.1,61.9,58.5,46.2,26.2,58,43,22,29.93,29.87,5,0,5,0.00
2014-8-16,87.5,72.1,64.2,55.2,39.2,14.5,50,32,12,29.96,29.90,2,0,5,0.00
2014-8-17,86.1,72.4,66.2,57.1,40.6,10.3,70,36,11,29.93,29.83,3,0,4,0.00
2014-8-18,79.5,67.5,55.1,59.0,52.6,39.4,90,60,44,29.83,29.74,4,0,4,0.00
2014-8-19,65.2,56.8,52.5,58.1,54.4,51.4,97,92,76,29.83,29.75,4,0,4,0.01
2014-8-20,68.2,57.8,52.8,58.5,54.1,49.4,98,88,68,29.91,29.81,3,0,5,0.00
2014-8-21,83.5,66.4,54.4,57.4,45.2,28.3,83,51,14,29.92,29.85,5,0,5,0.00
2014-8-22,77.7,65.9,58.0,59.0,54.3,46.8,90,67,52,29.88,29.84,5,0,5,0.00
2014-8-23,76.0,59.3,50.4,56.0,52.2,48.0,96,79,49,29.89,29.81,5,0,5,0.00
2014-8-24,75.8,58.9,49.7,58.5,52.3,42.3,97,81,52,29.84,29.79,5,0,5,0.00
2014-8-25,70.2,56.8,51.8,57.6,52.0,48.6,98,85,58,29.91,29.78,5,0,5,0.00
2014-8-26,79.5,62.5,50.7,58.1,52.2,46.8,96,72,45,29.96,29.89,5,0,5,0.00
2014-8-27,88.3,72.1,61.7,59.2,46.3,31.4,59,41,26,29.99,29.94,5,0,5,0.00
2014-8-28,88.1,73.9,64.1,59.4,49.5,34.0,59,43,27,29.97,29.88,7,0,7,0.00
2014-8-29,89.5,75.1,66.8,61.3,49.1,31.2,60,41,19,29.88,29.81,9,1,9,0.00
2014-8-30,92.9,78.9,68.7,54.8,42.5,29.1,56,29,16,29.84,29.79,9,2,9,0.00
2014-8-31,84.0,72.2,62.2,58.1,48.3,32.5,62,44,22,29.84,29.78,9,0,9,0.00
2014-9-1,91.8,76.4,65.6,59.7,49.7,38.6,48,40,30,29.78,29.71,7,0,7,0.00
2014-9-2,74.7,68.2,55.5,59.9,54.6,46.4,89,63,42,29.76,29.70,4,0,5,0.00
2014-9-3,70.5,58.8,51.2,57.9,53.4,47.0,97,83,63,29.75,29.67,3,0,5,0.00
2014-9-4,72.3,60.4,52.4,58.9,54.0,48.7,95,80,62,29.74,29.65,5,0,5,0.00
2014-9-5,76.8,60.2,50.4,58.6,52.2,42.0,97,77,50,29.85,29.74,4,0,4,0.00
2014-9-6,79.0,65.7,55.8,57.9,45.8,8.5,79,52,12,29.88,29.82,3,0,5,0.00
2014-9-7,81.5,69.4,58.9,57.4,37.1,0.2,78,38,7,29.82,29.72,6,0,6,0.00
2014-9-8,76.2,61.6,51.9,55.9,51.3,43.2,90,70,49,29.87,29.73,5,0,5,0.00
2014-9-9,82.7,67.7,54.3,55.9,49.1,34.4,83,53,26,29.92,29.84,5,0,5,0.00
2014-9-10,92.5,77.3,66.6,51.1,42.6,32.5,52,30,23,29.87,29.78,6,0,6,0.00
2014-9-11,96.7,81.8,73.6,54.8,42.2,30.1,37,25,17,29.82,29.75,8,1,8,0.00
2014-9-12,96.5,82.4,74.1,54.8,42.7,29.6,40,25,16,29.80,29.72,8,0,8,0.00
2014-9-13,94.0,78.8,68.7,58.8,50.4,40.5,63,39,22,29.75,29.70,5,0,5,0.00
2014-9-14,89.0,76.9,67.3,58.0,53.0,45.1,56,44,31,29.77,29.71,6,0,6,0.00
2014-9-15,88.4,73.9,61.9,59.0,48.9,39.7,60,42,22,29.84,29.75,6,0,6,0.00
2014-9-16,90.2,71.3,57.1,54.2,44.9,15.4,74,42,14,29.84,29.76,5,0,5,0.00
2014-9-17,83.4,70.1,60.2,59.0,43.6,13.9,95,44,12,29.76,29.71,6,0,6,0.04
2014-9-18,67.0,61.4,58.1,62.9,59.7,56.3,98,95,81,29.83,29.72,5,0,5,0.47
2014-9-19,78.0,65.4,56.8,63.5,58.2,54.5,96,79,56,29.86,29.81,6,1,6,0.00
2014-9-20,77.7,65.2,56.2,63.0,57.4,50.5,96,77,59,29.87,29.80,10,0,10,0.00
2014-9-21,74.0,60.9,55.4,62.8,57.4,54.6,98,89,62,29.95,29.86,5,0,5,0.00
2014-9-22,81.3,65.5,54.8,62.4,57.5,53.2,97,78,48,29.97,29.90,7,0,7,0.00
2014-9-23,84.5,69.0,58.4,61.4,56.3,50.4,93,66,41,29.93,29.86,5,0,5,0.00
2014-9-24,78.8,64.7,56.3,60.3,56.1,49.9,95,76,44,29.89,29.83,6,0,6,0.00
2014-9-25,63.2,58.7,52.4,60.6,56.2,49.8,97,91,82,29.94,29.82,8,1,9,0.27
2014-9-26,65.4,57.0,52.0,54.9,50.4,47.5,95,79,59,29.93,29.85,12,1,13,0.03
2014-9-27,69.5,58.5,51.8,57.8,53.1,49.5,94,83,63,29.87,29.79,7,0,7,0.00
2014-9-28,62.7,56.1,52.2,57.2,53.7,50.3,96,92,80,29.90,29.77,6,0,6,0.00
2014-9-29,75.1,63.5,53.6,60.3,54.3,46.7,96,73,56,29.96,29.89,8,1,8,0.00
2014-9-30,73.0,63.6,55.7,58.7,53.3,43.3,85,70,48,29.92,29.78,5,1,8,0.00
2014-10-1,77.8,69.1,61.9,53.4,38.4,30.0,73,34,20,29.87,29.75,19,4,23,0.00
2014-10-2,90.8,76.4,66.8,40.5,35.1,29.2,31,23,13,29.95,29.87,8,1,9,0.00
2014-10-3,94.7,80.5,72.1,41.3,37.1,27.6,28,22,12,30.01,29.94,8,1,8,0.00
2014-10-4,95.1,82.4,74.7,41.8,36.4,30.9,24,20,13,29.97,29.85,8,2,8,0.00
2014-10-5,96.8,83.5,76.2,42.5,35.2,23.6,25,18,12,29.87,29.81,6,1,6,0.00
2014-10-6,97.2,82.8,75.1,49.7,32.0,13.8,37,17,10,29.84,29.78,8,1,8,0.00
2014-10-7,90.2,81.4,76.0,42.7,30.4,24.7,26,16,10,29.83,29.75,11,2,11,0.00
2014-10-8,87.4,79.1,70.1,44.9,36.7,30.1,32,22,14,29.83,29.77,12,3,12,0.00
2014-10-9,84.0,74.7,68.0,54.2,41.6,29.0,60,31,19,29.89,29.81,8,2,8,0.00
2014-10-10,75.4,69.1,60.1,56.5,47.5,31.2,62,47,23,29.95,29.88,8,1,8,0.00
2014-10-11,83.2,70.7,61.0,56.2,45.9,30.3,61,42,26,29.96,29.90,7,0,7,0.00
2014-10-12,81.4,74.9,68.3,44.2,26.5,6.3,39,19,7,29.90,29.84,20,4,20,0.00
2014-10-13,86.8,73.1,59.4,56.9,32.6,8.6,68,27,9,29.90,29.85,5,0,5,0.00
2014-10-14,60.2,55.9,53.0,54.5,52.6,46.0,94,89,71,29.85,29.78,7,0,7,0.02
2014-10-15,66.5,57.6,52.6,58.2,53.3,49.1,98,86,61,29.99,29.84,7,1,7,0.08
2014-10-16,69.4,59.5,53.6,54.9,48.4,39.0,84,68,47,29.97,29.88,6,0,6,0.00
2014-10-17,69.5,58.0,52.1,53.7,46.1,40.0,91,65,47,29.94,29.87,4,0,6,0.00
2014-10-18,76.3,63.9,55.7,54.8,52.2,49.5,90,67,45,29.94,29.83,8,0,8,0.00
2014-10-19,77.5,64.8,56.6,55.5,51.5,49.4,82,63,41,29.84,29.79,5,0,5,0.00
2014-10-20,65.3,55.3,50.8,57.0,52.3,46.8,96,90,71,30.01,29.82,9,1,9,0.04
2014-10-21,62.8,55.2,49.6,47.6,44.4,39.6,90,69,43,30.02,29.94,12,2,12,0.01
2014-10-22,72.0,61.6,54.0,48.6,44.9,40.8,68,55,40,30.00,29.95,9,1,9,0.00
2014-10-23,74.6,63.2,56.3,53.2,48.7,42.0,70,60,45,29.98,29.89,8,1,8,0.00
2014-10-24,74.2,61.6,54.5,54.8,50.5,46.0,93,68,46,29.90,29.83,5,0,5,0.00
2014-10-25,58.7,55.5,51.6,57.8,53.3,49.3,98,92,84,30.08,29.86,7,0,7,0.01
2014-10-26,58.4,53.7,50.3,49.3,43.8,36.0,91,71,48,30.08,29.97,15,4,15,0.00
2014-10-27,65.3,56.9,50.3,45.6,41.1,32.8,77,57,31,29.99,29.93,10,1,10,0.00
2014-10-28,73.3,62.2,54.1,47.5,39.5,33.0,64,44,27,30.04,29.97,8,1,8,0.00
2014-10-29,82.6,70.0,61.5,48.4,42.8,34.8,45,38,28,30.04,29.91,7,1,7,0.00
2014-10-30,72.6,63.5,53.2,52.2,46.4,39.6,95,56,32,29.91,29.81,5,0,5,0.00
2014-10-31,53.9,51.7,47.0,53.3,50.9,46.2,98,97,95,29.83,29.65,5,0,5,0.66
2014-11-1,51.9,47.7,44.6,51.0,46.3,43.2,98,95,87,29.98,29.68,5,0,5,0.42
2014-11-2,57.0,50.5,45.3,46.5,42.6,37.9,93,75,52,30.12,29.98,8,2,14,0.00
2014-11-3,63.9,54.9,48.8,46.6,38.9,34.0,63,55,39,30.19,30.10,5,0,5,0.00
2014-11-4,69.1,58.9,52.1,45.4,38.2,31.5,58,46,34,30.23,30.15,8,1,8,0.00
2014-11-5,76.9,65.8,58.6,48.8,43.2,32.6,54,44,31,30.15,30.01,10,0,10,0.00
2014-11-6,77.1,66.2,60.8,50.7,44.8,36.3,62,47,35,30.13,30.07,6,1,8,0.00
2014-11-7,76.2,66.2,61.4,53.2,43.3,24.1,63,45,22,30.12,30.01,10,1,10,0.00
2014-11-8,80.8,69.6,62.3,51.3,42.5,32.8,56,38,26,30.03,29.93,6,1,8,0.00
2014-11-9,78.2,68.6,62.5,51.2,43.0,35.9,51,40,28,29.94,29.74,8,1,8,0.00
2014-11-10,70.7,58.3,50.0,52.2,47.1,35.4,97,69,37,29.78,29.70,3,0,3,0.00
2014-11-11,55.1,50.7,48.5,51.7,48.1,44.6,97,91,80,29.91,29.78,4,0,4,0.03
2014-11-12,60.0,52.3,48.8,48.1,45.8,44.1,88,79,62,29.97,29.91,5,0,5,0.00
2014-11-13,56.0,53.4,49.5,55.4,52.5,46.9,98,97,86,30.01,29.90,3,0,5,0.44
2014-11-14,59.1,52.7,48.6,53.6,48.0,42.8,95,84,70,30.04,29.99,8,2,8,0.00
2014-11-15,59.5,52.4,46.9,49.0,45.2,43.1,92,77,62,30.11,30.01,11,2,11,0.00
2014-11-16,60.7,53.3,50.0,45.0,26.1,12.7,74,37,20,30.16,30.06,16,3,16,0.00
2014-11-17,67.3,57.0,50.4,37.7,28.0,18.6,50,34,20,30.16,30.02,8,1,8,0.00
2014-11-18,67.6,59.5,53.9,39.2,27.7,17.7,56,31,18,30.05,29.97,7,0,7,0.00
2014-11-19,55.8,52.3,47.6,52.3,41.7,22.5,97,72,29,30.07,29.93,9,0,9,0.01
2014-11-20,51.5,49.8,47.9,50.8,49.2,47.4,98,98,96,30.06,29.92,3,0,3,0.62
2014-11-21,56.4,50.9,46.1,52.9,48.7,44.8,98,92,80,30.10,29.96,6,0,6,0.00
2014-11-22,57.9,52.3,49.1,57.3,50.2,46.0,98,93,82,30.17,30.03,11,1,11,0.19
2014-11-23,61.7,53.1,48.7,46.6,35.7,22.1,91,54,30,30.25,30.13,16,2,16,0.00
2014-11-24,61.8,54.9,49.0,33.3,26.0,20.5,53,33,24,30.34,30.21,10,2,10,0.00
2014-11-25,72.5,61.4,53.5,43.8,32.4,19.0,52,34,22,30.35,30.24,6,0,6,0.00
2014-11-26,77.3,66.1,60.4,45.7,36.5,27.9,43,34,26,30.24,30.12,5,0,5,0.00
2014-11-27,75.9,65.7,59.1,41.2,29.9,13.0,34,26,16,30.11,29.97,6,0,6,0.00
2014-11-28,71.1,59.2,48.5,49.4,21.0,-11.0,96,33,5,29.97,29.79,3,0,5,0.00
2014-11-29,53.0,51.4,49.1,52.5,50.4,46.1,98,96,88,29.81,29.71,4,0,4,0.75
2014-11-30,54.0,51.1,47.1,53.5,47.6,31.5,98,89,51,29.99,29.69,15,0,15,0.98
2014-12-1,60.8,54.0,51.0,56.5,52.7,49.5,98,95,83,30.07,29.88,8,0,8,0.03
2014-12-2,56.2,52.8,50.3,54.7,51.7,49.3,99,96,83,29.88,29.62,13,1,13,1.30
2014-12-3,55.7,54.1,53.0,55.4,53.8,52.5,99,99,98,29.80,29.64,9,2,13,1.87
2014-12-4,56.7,54.3,53.0,56.4,54.0,52.7,99,99,99,29.97,29.82,4,0,4,0.20
2014-12-5,56.0,54.3,52.9,55.7,54.0,52.5,99,99,99,30.05,29.95,7,0,7,0.30
2014-12-6,58.1,54.1,52.3,57.7,53.7,52.0,99,99,98,30.17,30.04,5,0,5,0.36
2014-12-7,57.8,54.5,51.8,55.8,51.5,47.1,99,90,75,30.16,30.08,6,0,6,0.00
2014-12-8,64.4,56.7,51.8,57.7,52.4,48.2,96,86,67,30.12,30.06,4,0,4,0.00
2014-12-9,63.6,56.4,53.3,57.8,52.2,46.4,96,86,69,30.12,30.00,7,1,10,0.00
2014-12-10,57.6,53.9,51.7,53.2,51.0,47.5,98,90,80,30.00,29.73,11,0,11,0.00
2014-12-11,54.1,49.7,43.1,53.5,48.6,42.5,98,96,88,29.73,29.52,8,1,15,3.86
2014-12-12,47.1,44.4,42.5,46.6,43.9,42.0,98,98,96,30.03,29.56,4,0,6,0.12
2014-12-13,53.3,45.9,42.2,48.7,43.4,40.6,98,91,78,30.15,30.03,3,0,4,0.00
2014-12-14,53.9,47.5,43.7,48.5,43.2,40.0,89,85,73,30.08,29.93,7,0,7,0.00
2014-12-15,47.6,45.9,43.6,47.1,44.7,39.7,99,96,76,29.93,29.78,8,1,14,1.29
2014-12-16,52.9,47.7,44.4,51.0,46.8,43.6,99,97,86,29.92,29.78,3,0,10,0.94
2014-12-17,49.4,45.6,43.3,47.5,44.4,41.7,98,95,89,30.03,29.88,7,0,7,0.22
2014-12-18,51.5,47.3,44.0,51.0,46.8,43.5,99,98,96,30.15,30.01,8,0,8,0.01
2014-12-19,50.6,48.7,46.7,50.3,48.4,46.4,99,99,98,30.15,30.08,5,0,5,0.68
2014-12-20,52.8,50.8,49.7,52.5,50.2,48.0,99,98,92,30.22,30.06,4,0,4,0.17
2014-12-21,59.3,54.6,51.3,56.1,53.3,50.7,99,95,88,30.26,30.20,9,2,9,0.00
2014-12-22,62.4,56.4,51.2,56.9,51.3,47.5,98,84,67,30.20,30.09,13,2,14,0.00
2014-12-23,66.4,60.0,56.8,54.1,47.3,38.4,71,63,47,30.12,30.05,13,2,19,0.00
2014-12-24,57.1,50.7,41.4,49.7,43.7,36.5,95,78,51,30.04,29.87,19,1,19,0.08
2014-12-25,46.7,43.1,39.5,36.8,31.0,25.5,84,63,46,30.03,29.93,16,3,20,0.00
2014-12-26,46.8,43.4,41.1,28.2,25.3,22.0,56,49,41,30.18,30.01,31,4,31,0.00
2014-12-27,50.7,43.8,38.8,37.7,30.0,22.3,83,59,43,30.30,30.17,8,0,8,0.00
2014-12-28,53.3,46.0,41.9,41.2,33.7,23.0,91,63,46,30.28,30.17,5,1,6,0.00
2014-12-29,53.4,44.3,38.7,44.3,39.3,34.5,94,83,66,30.17,30.02,15,1,15,0.00
2014-12-30,42.9,39.2,35.4,35.5,23.0,9.6,86,55,31,30.09,29.98,26,6,26,0.00
2014-12-31,47.7,41.1,34.0,13.4,7.7,2.4,39,26,16,30.13,29.99,30,5,35,0.00
2015-1-1,53.4,43.4,38.4,30.6,19.6,6.8,69,40,22,30.08,29.97,9,0,9,0.00
2015-1-2,50.6,42.9,39.3,35.2,30.4,22.4,78,62,38,30.11,30.02,11,0,11,0.00